Terminal Aerodrome Forecast
Issued by NWS Lake Charles, LA

Home | Current Version | Previous Version | Text Only | Print | Product List | Glossary On
Versions: 1 2 3 4 5 6 7 8 9 10 11 12 13 14 15 16 17 18 19 20 21 22 23 24 25 26
000
FTUS44 KLCH 192150 AAA
TAFBPT
TAF AMD
KBPT 192150Z 1922/2018 16019G27KT P6SM BKN025
     FM200400 14010KT 6SM BR BKN010
     FM201500 14014G20KT P6SM BKN015=

USA.gov is the U.S. government's official web portal to all federal, state and local government web resources and services.